Time;durP1;ratioP1;P1;durP2;ratioP2;P2;SDS_P1;SDS_P2;PMS_P1;PMS_P2;Temp;Humidity;BMP_temperature;BMP_pressure;BME280_temperature;BME280_humidity;BME280_pressure;Samples;Min_cycle;Max_cycle;Signal;HPM_P1;HPM_P2
2022/04/18 00:02:21;;;;;;;;;;;8.80;77.30;;;;;;4980004;28;19940;-72
2022/04/18 00:04:48;;;;;;;;;;;8.80;77.00;;;;;;4983362;28;19928;-72
2022/04/18 00:07:16;;;;;;;;;;;8.70;76.80;;;;;;4978596;28;20305;-71
2022/04/18 00:09:43;;;;;;;;;;;8.80;76.60;;;;;;4962044;28;19929;-73
2022/04/18 00:12:10;;;;;;;;;;;8.90;76.50;;;;;;4979884;28;19930;-73
2022/04/18 00:14:37;;;;;;;;;;;8.90;76.20;;;;;;4978896;28;19963;-73
2022/04/18 00:17:08;;;;;;;;;;;8.90;76.00;;;;;;4962065;28;19929;-75
2022/04/18 00:19:36;;;;;;;;;;;8.90;75.80;;;;;;4970858;28;19929;-72
2022/04/18 00:22:03;;;;;;;;;;;8.90;75.60;;;;;;4980149;28;19969;-73
2022/04/18 00:24:31;;;;;;;;;;;9.00;75.40;;;;;;4979394;28;19930;-73
2022/04/18 00:26:58;;;;;;;;;;;9.00;75.20;;;;;;4978852;28;19925;-73
2022/04/18 00:29:25;;;;;;;;;;;9.00;75.10;;;;;;4978080;28;19937;-73
2022/04/18 00:31:51;;;;;;;;;;;9.00;74.90;;;;;;4962463;28;20048;-73
2022/04/18 00:34:18;;;;;;;;;;;9.00;74.80;;;;;;4986298;28;20005;-73
2022/04/18 00:36:45;;;;;;;;;;;8.90;74.80;;;;;;4968409;28;19929;-72
2022/04/18 00:39:12;;;;;;;;;;;8.90;74.60;;;;;;4980838;28;19926;-72
2022/04/18 00:41:40;;;;;;;;;;;8.80;74.60;;;;;;4980437;28;20374;-72
2022/04/18 00:44:06;;;;;;;;;;;8.80;74.70;;;;;;4978547;28;20029;-72
2022/04/18 00:46:33;;;;;;;;;;;8.70;74.80;;;;;;4958369;28;20024;-72
2022/04/18 00:49:00;;;;;;;;;;;8.70;74.90;;;;;;4959854;28;19929;-72
2022/04/18 00:51:28;;;;;;;;;;;8.70;75.00;;;;;;4979652;28;20478;-73
2022/04/18 00:53:56;;;;;;;;;;;8.70;75.10;;;;;;4977170;28;20024;-73
2022/04/18 00:56:23;;;;;;;;;;;8.60;75.20;;;;;;4960221;28;20691;-74
2022/04/18 00:58:51;;;;;;;;;;;8.50;75.20;;;;;;4979734;28;20150;-73
2022/04/18 01:01:18;;;;;;;;;;;8.50;75.30;;;;;;4978991;28;20024;-73
2022/04/18 01:03:47;;;;;;;;;;;8.40;75.30;;;;;;4959908;28;20896;-73
2022/04/18 01:06:15;;;;;;;;;;;8.40;75.40;;;;;;4979137;28;20306;-72
2022/04/18 01:08:42;;;;;;;;;;;8.40;75.30;;;;;;4961031;28;20353;-73
2022/04/18 01:11:09;;;;;;;;;;;8.30;75.10;;;;;;4960893;28;20024;-73
2022/04/18 01:14:02;;;;;;;;;;;8.30;75.10;;;;;;4948990;28;19929;-74
2022/04/18 01:16:37;;;;;;;;;;;8.30;75.30;;;;;;4960586;28;19930;-72
2022/04/18 01:19:30;;;;;;;;;;;8.30;75.30;;;;;;4954076;28;19936;-72
2022/04/18 01:22:24;;;;;;;;;;;8.20;75.20;;;;;;4961468;28;19946;-72
2022/04/18 01:30:37;;;;;;;;;;;8.10;75.10;;;;;;4977545;28;20013;-74
2022/04/18 01:33:04;;;;;;;;;;;8.00;74.50;;;;;;4962573;28;19930;-73
2022/04/18 01:35:31;;;;;;;;;;;8.00;75.30;;;;;;4978146;28;19980;-72
2022/04/18 01:37:59;;;;;;;;;;;7.90;75.30;;;;;;4979342;28;19937;-72
2022/04/18 01:40:26;;;;;;;;;;;7.90;75.60;;;;;;4971347;28;19984;-74
2022/04/18 01:42:53;;;;;;;;;;;7.80;75.80;;;;;;4977085;28;20021;-73
2022/04/18 01:45:20;;;;;;;;;;;7.80;75.80;;;;;;4955342;28;19952;-73
2022/04/18 01:47:58;;;;;;;;;;;7.80;75.90;;;;;;4962404;28;20410;-73
2022/04/18 01:50:26;;;;;;;;;;;7.70;75.90;;;;;;4961676;28;19957;-71
2022/04/18 01:52:53;;;;;;;;;;;7.70;76.00;;;;;;4954299;28;20358;-72
2022/04/18 01:55:22;;;;;;;;;;;7.60;75.90;;;;;;4959842;28;19929;-72
2022/04/18 01:57:55;;;;;;;;;;;7.60;75.90;;;;;;4971848;28;19957;-72
2022/04/18 02:00:22;;;;;;;;;;;7.60;76.30;;;;;;4964977;28;20023;-72
2022/04/18 02:02:49;;;;;;;;;;;7.50;76.10;;;;;;4968821;28;19929;-71
2022/04/18 02:05:16;;;;;;;;;;;7.50;76.20;;;;;;4977358;28;19930;-72
2022/04/18 02:07:43;;;;;;;;;;;7.40;76.10;;;;;;4975124;28;20409;-72
2022/04/18 02:10:12;;;;;;;;;;;7.40;76.10;;;;;;4959805;28;20036;-72
2022/04/18 02:12:40;;;;;;;;;;;7.30;76.20;;;;;;4977426;28;19929;-72
2022/04/18 02:15:08;;;;;;;;;;;7.30;76.50;;;;;;4959524;28;20021;-72
2022/04/18 02:17:45;;;;;;;;;;;7.30;76.50;;;;;;4956614;28;19937;-72
2022/04/18 02:20:12;;;;;;;;;;;7.20;76.50;;;;;;4960274;28;19929;-72
2022/04/18 02:22:39;;;;;;;;;;;7.20;76.90;;;;;;4977123;28;19929;-72
2022/04/18 02:25:06;;;;;;;;;;;7.10;77.00;;;;;;4976475;28;19961;-72
2022/04/18 02:27:33;;;;;;;;;;;7.10;77.10;;;;;;4957961;28;20418;-72
2022/04/18 02:30:04;;;;;;;;;;;7.00;77.10;;;;;;4960247;28;19933;-72
2022/04/18 02:32:49;;;;;;;;;;;7.00;77.00;;;;;;4961642;28;19937;-72
2022/04/18 02:35:18;;;;;;;;;;;7.00;77.10;;;;;;4961383;28;19933;-72
2022/04/18 02:37:45;;;;;;;;;;;6.90;77.20;;;;;;4979654;28;20028;-72
2022/04/18 02:40:15;;;;;;;;;;;6.90;77.60;;;;;;4958736;28;20427;-72
2022/04/18 02:42:43;;;;;;;;;;;6.80;77.80;;;;;;4958633;28;19925;-72
2022/04/18 02:45:14;;;;;;;;;;;6.80;77.80;;;;;;4975711;28;21504;-72
2022/04/18 02:47:59;;;;;;;;;;;6.70;78.00;;;;;;4976283;28;19936;-72
2022/04/18 02:50:26;;;;;;;;;;;6.70;79.00;;;;;;4976802;28;19929;-72
2022/04/18 02:52:54;;;;;;;;;;;6.60;78.30;;;;;;4959953;28;19981;-73
2022/04/18 02:55:30;;;;;;;;;;;6.50;78.30;;;;;;4958638;28;19952;-72
2022/04/18 02:57:57;;;;;;;;;;;6.50;78.40;;;;;;4978517;28;19936;-73
2022/04/18 03:00:29;;;;;;;;;;;6.50;78.40;;;;;;4957702;28;20442;-73
2022/04/18 03:02:56;;;;;;;;;;;6.50;78.50;;;;;;4977868;28;19929;-73
2022/04/18 03:05:23;;;;;;;;;;;6.50;78.70;;;;;;4978967;28;19930;-73
2022/04/18 03:07:50;;;;;;;;;;;6.50;78.90;;;;;;4979883;28;20040;-72
2022/04/18 03:11:02;;;;;;;;;;;6.50;79.00;;;;;;4962236;28;19934;-73
2022/04/18 03:13:07;;;;;;;;;;;6.50;78.90;;;;;;4978002;28;19936;-73
2022/04/18 03:15:36;;;;;;;;;;;6.50;78.80;;;;;;4963661;28;20048;-73
2022/04/18 03:18:03;;;;;;;;;;;6.40;78.80;;;;;;4972786;28;19930;-74
2022/04/18 03:20:29;;;;;;;;;;;6.40;78.90;;;;;;4979146;28;19965;-73
2022/04/18 03:22:56;;;;;;;;;;;6.40;78.90;;;;;;4965482;28;19940;-73
2022/04/18 03:25:43;;;;;;;;;;;6.40;79.00;;;;;;4983182;28;20466;-73
2022/04/18 03:28:11;;;;;;;;;;;6.40;78.90;;;;;;4980549;28;19930;-74
2022/04/18 03:30:39;;;;;;;;;;;6.50;79.20;;;;;;4981977;28;20164;-73
2022/04/18 03:33:06;;;;;;;;;;;6.40;78.20;;;;;;4964976;28;19960;-73
2022/04/18 03:35:33;;;;;;;;;;;6.40;79.50;;;;;;4968116;28;19929;-73
2022/04/18 03:40:44;;;;;;;;;;;6.40;79.90;;;;;;4985046;28;20069;-73
2022/04/18 03:43:12;;;;;;;;;;;6.30;79.80;;;;;;4964179;28;19976;-73
2022/04/18 03:45:41;;;;;;;;;;;6.30;80.00;;;;;;4973757;28;19930;-74
2022/04/18 03:48:08;;;;;;;;;;;6.20;80.00;;;;;;4978678;28;19930;-73
2022/04/18 03:50:35;;;;;;;;;;;6.10;80.10;;;;;;4960468;28;19970;-72
2022/04/18 03:53:02;;;;;;;;;;;6.10;80.50;;;;;;4978040;28;19936;-72
2022/04/18 03:55:35;;;;;;;;;;;6.00;80.70;;;;;;4963466;28;20000;-72
2022/04/18 03:58:11;;;;;;;;;;;5.90;81.00;;;;;;4961327;28;21045;-72
2022/04/18 04:00:42;;;;;;;;;;;5.80;81.20;;;;;;4971474;28;20008;-72
2022/04/18 04:03:12;;;;;;;;;;;5.70;81.40;;;;;;4962173;28;19930;-72
2022/04/18 04:05:45;;;;;;;;;;;5.70;81.60;;;;;;4979249;28;19936;-72
2022/04/18 04:08:12;;;;;;;;;;;5.70;81.70;;;;;;4963006;28;19969;-72
2022/04/18 04:10:39;;;;;;;;;;;5.70;81.80;;;;;;4971201;28;20370;-72
2022/04/18 04:13:08;;;;;;;;;;;5.70;81.00;;;;;;4958999;28;20000;-72
2022/04/18 04:16:08;;;;;;;;;;;5.80;82.20;;;;;;4970770;28;20383;-72
2022/04/18 04:18:36;;;;;;;;;;;5.80;82.00;;;;;;4970385;28;20410;-72
2022/04/18 04:21:06;;;;;;;;;;;5.80;82.10;;;;;;4961805;28;19930;-72
2022/04/18 04:23:33;;;;;;;;;;;5.80;82.00;;;;;;4978438;28;19968;-72
2022/04/18 04:26:08;;;;;;;;;;;6.20;82.50;;;;;;4976826;28;19947;-72
2022/04/18 04:28:49;;;;;;;;;;;5.70;82.00;;;;;;4962349;28;19936;-72
2022/04/18 04:31:24;;;;;;;;;;;5.70;82.10;;;;;;4976162;28;20391;-73
2022/04/18 04:33:52;;;;;;;;;;;5.70;82.30;;;;;;4961512;28;20191;-72
2022/04/18 04:36:19;;;;;;;;;;;5.60;82.40;;;;;;4993367;28;20908;-71
2022/04/18 04:38:47;;;;;;;;;;;5.60;82.60;;;;;;4973755;28;19929;-72
2022/04/18 04:41:33;;;;;;;;;;;5.60;82.80;;;;;;4972330;28;19942;-72
2022/04/18 04:44:00;;;;;;;;;;;5.60;82.80;;;;;;4973064;28;20387;-72
2022/04/18 04:46:36;;;;;;;;;;;5.50;83.00;;;;;;4990364;28;19909;-72
2022/04/18 04:49:13;;;;;;;;;;;5.50;83.30;;;;;;4988225;28;19938;-72
2022/04/18 04:51:48;;;;;;;;;;;5.40;83.60;;;;;;4982537;28;20213;-72
2022/04/18 04:54:17;;;;;;;;;;;6.10;84.50;;;;;;4981942;28;20350;-72
2022/04/18 04:56:44;;;;;;;;;;;5.50;84.10;;;;;;4969858;28;19926;-72
2022/04/18 04:59:11;;;;;;;;;;;5.50;84.40;;;;;;4971679;28;20215;-73
2022/04/18 05:01:37;;;;;;;;;;;5.50;84.70;;;;;;4968155;28;19921;-72
2022/04/18 05:04:09;;;;;;;;;;;5.50;85.00;;;;;;4972839;28;20345;-72
2022/04/18 05:06:37;;;;;;;;;;;5.50;85.20;;;;;;4972486;28;19960;-72
2022/04/18 05:09:08;;;;;;;;;;;5.60;85.60;;;;;;4981778;28;19929;-73
2022/04/18 05:11:36;;;;;;;;;;;5.60;85.90;;;;;;4966298;28;19932;-72
2022/04/18 05:14:03;;;;;;;;;;;5.60;86.10;;;;;;4963382;28;20209;-72
2022/04/18 05:17:06;;;;;;;;;;;5.70;86.40;;;;;;4974823;28;19926;-72
2022/04/18 05:19:36;;;;;;;;;;;5.80;86.60;;;;;;4965417;28;19981;-72
2022/04/18 05:22:31;;;;;;;;;;;5.80;86.80;;;;;;4987477;28;19951;-72
2022/04/18 05:24:58;;;;;;;;;;;5.90;87.00;;;;;;4974549;28;19972;-72
2022/04/18 05:27:37;;;;;;;;;;;6.40;87.80;;;;;;4975084;28;19926;-73
2022/04/18 05:30:08;;;;;;;;;;;6.10;87.80;;;;;;4973766;28;19980;-72
2022/04/18 05:32:36;;;;;;;;;;;6.30;88.10;;;;;;4982256;28;19921;-73
2022/04/18 05:35:08;;;;;;;;;;;6.40;88.30;;;;;;4964454;28;20259;-73
2022/04/18 05:37:36;;;;;;;;;;;6.60;88.90;;;;;;4986092;28;20000;-73
2022/04/18 05:40:15;;;;;;;;;;;7.40;89.70;;;;;;4965151;28;19936;-72
2022/04/18 05:42:42;;;;;;;;;;;8.60;90.60;;;;;;4965445;28;19936;-73
2022/04/18 05:45:13;;;;;;;;;;;10.00;91.10;;;;;;4974078;28;20020;-74
2022/04/18 05:47:43;;;;;;;;;;;11.50;91.00;;;;;;4967096;28;19972;-74
2022/04/18 05:50:10;;;;;;;;;;;13.10;90.90;;;;;;4981406;28;19961;-74
2022/04/18 05:52:49;;;;;;;;;;;14.50;90.50;;;;;;4972321;28;19959;-74
2022/04/18 05:55:37;;;;;;;;;;;16.00;90.00;;;;;;4978730;28;20462;-74
2022/04/18 05:58:14;;;;;;;;;;;17.60;88.90;;;;;;4969460;28;20616;-74
2022/04/18 06:00:41;;;;;;;;;;;18.80;96.80;;;;;;4978087;28;20036;-75
2022/04/18 06:03:07;;;;;;;;;;;20.00;95.50;;;;;;4968800;28;19932;-74
2022/04/18 06:05:34;;;;;;;;;;;21.00;95.20;;;;;;4971844;28;19922;-74
2022/04/18 06:08:18;;;;;;;;;;;22.00;91.60;;;;;;4966859;28;19936;-75
2022/04/18 06:11:05;;;;;;;;;;;23.10;95.40;;;;;;4991383;28;20005;-74
2022/04/18 06:13:52;;;;;;;;;;;24.10;94.00;;;;;;4985382;28;20004;-74
2022/04/18 06:16:18;;;;;;;;;;;24.70;80.30;;;;;;4979502;28;19928;-74
2022/04/18 06:18:48;;;;;;;;;;;25.30;74.00;;;;;;4972318;28;19925;-74
2022/04/18 06:21:15;;;;;;;;;;;25.90;71.90;;;;;;4967589;28;19932;-74
2022/04/18 06:23:46;;;;;;;;;;;26.50;69.10;;;;;;4969333;28;19933;-75
2022/04/18 06:26:31;;;;;;;;;;;26.90;65.50;;;;;;4987107;28;19976;-75
2022/04/18 06:29:00;;;;;;;;;;;27.20;63.50;;;;;;4992222;28;19938;-74
2022/04/18 06:31:27;;;;;;;;;;;27.40;61.50;;;;;;4980259;28;20180;-76
2022/04/18 06:33:59;;;;;;;;;;;27.70;61.00;;;;;;4971640;28;20197;-74
2022/04/18 06:36:26;;;;;;;;;;;27.80;59.70;;;;;;4972529;28;19949;-74
2022/04/18 06:39:14;;;;;;;;;;;27.90;58.70;;;;;;4977339;28;19925;-74
2022/04/18 06:41:41;;;;;;;;;;;27.50;59.20;;;;;;4971155;28;20457;-75
2022/04/18 06:44:09;;;;;;;;;;;28.10;59.50;;;;;;4968838;28;21263;-74
2022/04/18 06:46:51;;;;;;;;;;;28.20;59.60;;;;;;4970716;28;19926;-75
2022/04/18 06:49:33;;;;;;;;;;;28.60;60.70;;;;;;4967891;28;19926;-76
2022/04/18 06:52:22;;;;;;;;;;;28.80;61.60;;;;;;4971402;28;19977;-76
2022/04/18 06:56:58;;;;;;;;;;;28.90;61.50;;;;;;4963661;28;19926;-75
2022/04/18 06:58:16;;;;;;;;;;;29.20;61.70;;;;;;4949469;28;19962;-76
2022/04/18 07:00:42;;;;;;;;;;;29.30;62.80;;;;;;4966634;28;20354;-75
2022/04/18 07:03:09;;;;;;;;;;;29.50;62.50;;;;;;4972121;28;19929;-77
2022/04/18 07:05:36;;;;;;;;;;;29.60;61.50;;;;;;4967943;28;19928;-77
2022/04/18 07:08:03;;;;;;;;;;;29.70;64.00;;;;;;4970669;28;19937;-76
2022/04/18 07:10:31;;;;;;;;;;;29.80;63.10;;;;;;4969652;28;19945;-77
2022/04/18 07:12:58;;;;;;;;;;;29.30;63.50;;;;;;4972977;28;19926;-76
2022/04/18 07:15:25;;;;;;;;;;;29.40;65.70;;;;;;4967172;28;19929;-76
2022/04/18 07:17:53;;;;;;;;;;;29.50;57.40;;;;;;4975266;28;19925;-76
2022/04/18 07:20:20;;;;;;;;;;;29.80;60.80;;;;;;4992068;28;20271;-76
2022/04/18 07:22:47;;;;;;;;;;;30.20;59.40;;;;;;4976473;28;19921;-76
2022/04/18 07:25:15;;;;;;;;;;;30.30;60.00;;;;;;4974067;28;19926;-76
2022/04/18 07:27:48;;;;;;;2.28;2.08;;;30.30;59.30;;;;;;4975336;28;19992;-76
2022/04/18 07:30:16;;;;;;;2.63;2.17;;;30.30;61.40;;;;;;4973140;28;20231;-76
2022/04/18 07:32:45;;;;;;;3.45;2.30;;;30.60;60.80;;;;;;4975162;28;20218;-76
2022/04/18 07:35:17;;;;;;;2.63;2.25;;;30.30;63.10;;;;;;4976419;28;20238;-77
2022/04/18 07:40:43;;;;;;;2.38;2.10;;;30.00;62.90;;;;;;4974552;28;20803;-75
2022/04/18 07:43:14;;;;;;;2.92;2.30;;;29.90;61.30;;;;;;4989198;28;20225;-78
2022/04/18 07:45:41;;;;;;;2.80;2.28;;;29.90;55.30;;;;;;5009249;28;20279;-78
2022/04/18 07:48:09;;;;;;;2.80;2.40;;;28.70;53.90;;;;;;4973014;28;20801;-75
2022/04/18 07:53:23;;;;;;;2.67;2.30;;;30.40;55.30;;;;;;4973083;28;20223;-76
2022/04/18 07:55:55;;;;;;;3.67;2.58;;;30.20;56.00;;;;;;4962231;28;20708;-75
2022/04/18 07:58:24;;;;;;;2.95;2.65;;;30.10;57.10;;;;;;4963791;28;20349;-72
2022/04/18 08:00:51;;;;;;;4.00;2.30;;;30.20;55.70;;;;;;4982731;28;20215;-75
2022/04/18 08:06:01;;;;;;;3.50;2.58;;;30.10;56.30;;;;;;5190426;22;20226;-74
2022/04/18 08:08:37;;;;;;;4.18;2.50;;;29.80;56.60;;;;;;4984395;28;20281;-75
2022/04/18 08:11:04;;;;;;;2.85;2.25;;;29.80;56.40;;;;;;4985473;28;20273;-75
2022/04/18 08:13:34;;;;;;;2.97;2.47;;;29.60;56.40;;;;;;5006522;28;20733;-74
2022/04/18 08:16:20;;;;;;;2.95;2.30;;;29.50;56.20;;;;;;5001792;28;20418;-75
2022/04/18 08:18:51;;;;;;;3.10;2.10;;;29.40;54.80;;;;;;4987292;28;20306;-74
2022/04/18 08:21:24;;;;;;;3.50;2.60;;;29.30;56.20;;;;;;4986144;28;20221;-75
2022/04/18 08:23:52;;;;;;;3.10;2.58;;;29.30;56.00;;;;;;5000109;28;20321;-75
2022/04/18 08:26:40;;;;;;;4.18;2.72;;;29.40;55.60;;;;;;5004152;28;20219;-75
2022/04/18 08:29:19;;;;;;;2.72;2.53;;;29.30;55.80;;;;;;4992351;28;20247;-74
2022/04/18 08:32:04;;;;;;;2.90;2.60;;;29.10;55.60;;;;;;4993587;28;20206;-74
2022/04/18 08:34:33;;;;;;;3.00;2.45;;;28.90;56.40;;;;;;5004602;28;20317;-74
2022/04/18 08:37:00;;;;;;;2.95;2.47;;;29.10;56.80;;;;;;4984005;28;20225;-74
2022/04/18 08:39:39;;;;;;;3.80;3.30;;;28.80;56.90;;;;;;4999312;28;20333;-74
2022/04/18 08:42:11;;;;;;;;;;;28.90;55.70;;;;;;4999441;28;20181;-74
2022/04/18 08:44:44;;;;;;;;;;;28.60;55.60;;;;;;4992882;28;19930;-74
2022/04/18 08:52:43;;;;;;;;;;;28.50;56.60;;;;;;4999519;28;19926;-74
2022/04/18 08:52:46;;;;;;;;;;;28.30;57.80;;;;;;5000727;28;20008;-74
2022/04/18 08:55:29;;;;;;;;;;;28.20;56.70;;;;;;5000121;28;19933;-74
2022/04/18 08:57:56;;;;;;;;;;;28.20;57.20;;;;;;4999116;28;20266;-74
2022/04/18 09:00:27;;;;;;;;;;;28.00;56.80;;;;;;5001829;28;20271;-74
2022/04/18 09:03:06;;;;;;;;;;;27.80;57.60;;;;;;5000551;28;19921;-74
2022/04/18 09:05:44;;;;;;;;;;;27.10;56.70;;;;;;4999463;28;19932;-73
2022/04/18 09:08:12;;;;;;;;;;;25.50;56.50;;;;;;4982238;28;19929;-74
2022/04/18 09:10:39;;;;;;;;;;;26.10;58.20;;;;;;4982486;28;19929;-75
2022/04/18 09:13:07;;;;;;;;;;;26.10;59.10;;;;;;4995056;28;19922;-74
2022/04/18 09:15:52;;;;;;;;;;;26.30;59.10;;;;;;5002783;28;20270;-74
2022/04/18 09:18:21;;;;;;;;;;;25.80;57.50;;;;;;5000934;28;20297;-75
2022/04/18 09:20:54;;;;;;;;;;;25.40;59.10;;;;;;4986162;28;19937;-75
2022/04/18 09:23:26;;;;;;;;;;;25.00;58.50;;;;;;4992161;28;19960;-74
2022/04/18 09:25:54;;;;;;;;;;;24.70;58.30;;;;;;4996557;28;19925;-75
2022/04/18 09:28:23;;;;;;;;;;;24.70;59.00;;;;;;5010353;28;20003;-74
2022/04/18 09:30:58;;;;;;;;;;;24.80;58.70;;;;;;4999580;28;20027;-75
2022/04/18 09:33:28;;;;;;;;;;;24.90;59.30;;;;;;5004165;28;19980;-75
2022/04/18 09:36:06;;;;;;;;;;;25.00;58.30;;;;;;4980479;28;19930;-75
2022/04/18 09:38:36;;;;;;;;;;;24.60;56.70;;;;;;4985846;28;20236;-74
2022/04/18 09:41:29;;;;;;;;;;;24.10;56.40;;;;;;4989567;28;19925;-75
2022/04/18 09:43:58;;;;;;;;;;;22.90;54.90;;;;;;4986359;28;19930;-74
2022/04/18 09:46:30;;;;;;;;;;;22.20;55.20;;;;;;4993474;28;19944;-74
2022/04/18 09:49:07;;;;;;;;;;;21.50;55.50;;;;;;5005902;28;19921;-74
2022/04/18 09:51:41;;;;;;;;;;;21.10;57.30;;;;;;4984020;28;20415;-75
2022/04/18 09:54:14;;;;;;;;;;;20.60;57.50;;;;;;4980321;28;19930;-74
2022/04/18 09:56:48;;;;;;;;;;;20.30;57.60;;;;;;5009069;28;19928;-74
2022/04/18 09:59:15;;;;;;;;;;;20.20;57.80;;;;;;4985688;28;19921;-73
2022/04/18 10:01:44;;;;;;;;;;;19.80;56.90;;;;;;5006250;28;20232;-74
2022/04/18 10:04:12;;;;;;;;;;;19.60;56.80;;;;;;5001376;28;20369;-73
2022/04/18 10:06:40;;;;;;;;;;;19.60;57.90;;;;;;5003680;28;20285;-75
2022/04/18 10:09:08;;;;;;;;;;;19.50;58.30;;;;;;4999532;28;19936;-74
2022/04/18 10:11:35;;;;;;;;;;;18.50;59.30;;;;;;5000862;28;19930;-74
2022/04/18 10:14:03;;;;;;;;;;;19.30;59.50;;;;;;4990357;28;19929;-73
2022/04/18 10:16:30;;;;;;;;;;;19.20;60.00;;;;;;4982014;28;19937;-74
2022/04/18 10:19:00;;;;;;;;;;;19.20;59.60;;;;;;5003684;28;20376;-74
2022/04/18 10:21:28;;;;;;;;;;;19.10;60.30;;;;;;5001884;28;19971;-74
2022/04/18 10:24:05;;;;;;;;;;;20.20;62.20;;;;;;5004588;28;20028;-74
2022/04/18 10:27:00;;;;;;;;;;;19.40;60.70;;;;;;5005324;28;19994;-74
2022/04/18 10:29:29;;;;;;;;;;;19.40;59.60;;;;;;4993919;28;19929;-75
2022/04/18 10:31:59;;;;;;;;;;;19.30;58.50;;;;;;5009654;28;19925;-74
2022/04/18 10:34:31;;;;;;;;;;;19.40;58.00;;;;;;5009398;28;19961;-75
2022/04/18 10:36:58;;;;;;;;;;;19.50;57.60;;;;;;5013032;28;19929;-73
2022/04/18 10:39:32;;;;;;;;;;;19.50;57.20;;;;;;4999097;28;21815;-75
2022/04/18 10:42:17;;;;;;;;;;;19.30;57.30;;;;;;5008780;28;19925;-74
2022/04/18 10:44:57;;;;;;;;;;;19.50;49.90;;;;;;5009482;28;20294;-74
2022/04/18 10:47:23;;;;;;;;;;;19.60;50.30;;;;;;5007129;28;19929;-74
2022/04/18 10:50:05;;;;;;;;;;;19.70;50.30;;;;;;5011035;28;20367;-74
2022/04/18 10:52:33;;;;;;;;;;;19.80;50.40;;;;;;5006019;28;19922;-75
2022/04/18 10:55:00;;;;;;;;;;;19.90;50.40;;;;;;5009126;28;20331;-73
2022/04/18 10:57:28;;;;;;;;;;;20.00;49.80;;;;;;5006541;28;19979;-74
2022/04/18 10:59:56;;;;;;;;;;;20.30;50.20;;;;;;5003564;28;20390;-74
2022/04/18 11:02:39;;;;;;;;;;;20.30;51.00;;;;;;5005334;28;19925;-74
2022/04/18 11:05:07;;;;;;;;;;;20.30;50.10;;;;;;5009282;28;19922;-74
2022/04/18 11:07:39;;;;;;;;;;;20.40;49.20;;;;;;5008648;28;19929;-75
2022/04/18 11:10:18;;;;;;;;;;;20.40;48.20;;;;;;5000492;28;19926;-73
2022/04/18 11:12:45;;;;;;;;;;;20.20;48.60;;;;;;5004607;28;19985;-76
2022/04/18 11:15:11;;;;;;;;;;;20.30;48.40;;;;;;5000103;28;20306;-75
2022/04/18 11:17:39;;;;;;;;;;;20.20;48.80;;;;;;5006219;28;19945;-74
2022/04/18 11:20:25;;;;;;;;;;;20.20;48.80;;;;;;4999584;28;19936;-73
2022/04/18 11:23:06;;;;;;;;;;;20.50;49.30;;;;;;5002858;28;19968;-74
2022/04/18 11:25:48;;;;;;;;;;;20.70;49.50;;;;;;5002903;28;20357;-74
2022/04/18 11:28:16;;;;;;;;;;;21.00;49.60;;;;;;4999840;28;19933;-74
2022/04/18 11:30:43;;;;;;;;;;;21.30;49.60;;;;;;5002695;28;19975;-74
2022/04/18 11:33:10;;;;;;;;;;;21.50;49.20;;;;;;4998755;28;20964;-73
2022/04/18 11:35:37;;;;;;;;;;;21.50;49.30;;;;;;4998008;28;19929;-75
2022/04/18 11:38:07;;;;;;;;;;;21.60;48.90;;;;;;5002989;28;19925;-74
2022/04/18 11:40:36;;;;;;;;;;;21.60;49.10;;;;;;5008488;28;20041;-74
2022/04/18 11:43:09;;;;;;;;;;;22.50;49.70;;;;;;4994198;28;19987;-74
2022/04/18 11:45:37;;;;;;;;;;;21.90;49.60;;;;;;5003355;28;20258;-74
2022/04/18 11:48:04;;;;;;;;;;;22.00;49.50;;;;;;5007243;28;19933;-75
2022/04/18 11:50:36;;;;;;;;;;;22.10;49.90;;;;;;5017028;28;19921;-75
2022/04/18 11:53:04;;;;;;;;;;;22.10;49.60;;;;;;5008525;28;20001;-74
2022/04/18 11:55:31;;;;;;;;;;;22.10;49.10;;;;;;5012815;28;20027;-74
2022/04/18 11:57:58;;;;;;;;;;;22.10;49.60;;;;;;5010668;28;19928;-74
2022/04/18 12:08:39;;;;;;;;;;;22.50;50.00;;;;;;4958532;28;19995;-74
2022/04/18 12:11:05;;;;;;;;;;;22.70;49.80;;;;;;5003486;28;19929;-73
2022/04/18 12:13:32;;;;;;;;;;;22.80;49.90;;;;;;5000914;28;19929;-73
2022/04/18 12:16:00;;;;;;;;;;;22.90;49.70;;;;;;4985249;28;19995;-73
2022/04/18 12:18:28;;;;;;;;;;;22.90;49.70;;;;;;5000622;28;19936;-73
2022/04/18 12:20:54;;;;;;;;;;;23.00;49.80;;;;;;5002050;28;20007;-73
2022/04/18 12:23:23;;;;;;;;;;;23.00;49.50;;;;;;5004504;28;19928;-73
2022/04/18 12:25:51;;;;;;;;;;;22.90;49.10;;;;;;5003646;28;19964;-73
2022/04/18 12:28:20;;;;;;;;;;;22.60;48.80;;;;;;5009917;28;19987;-73
2022/04/18 12:30:47;;;;;;;;;;;22.40;49.50;;;;;;5001867;28;19925;-73
2022/04/18 12:33:15;;;;;;;;;;;22.30;49.60;;;;;;5006316;28;20232;-73
2022/04/18 12:35:45;;;;;;;;;;;22.40;49.60;;;;;;5005227;28;19933;-73
2022/04/18 12:38:12;;;;;;;;;;;22.60;49.70;;;;;;4998758;28;20331;-73
2022/04/18 12:40:39;;;;;;;;;;;22.80;49.90;;;;;;5002049;28;20387;-73
2022/04/18 12:43:10;;;;;;;;;;;22.80;49.60;;;;;;5009239;28;19930;-73
2022/04/18 12:45:58;;;;;;;;;;;22.70;48.90;;;;;;5009585;28;19925;-73
2022/04/18 12:48:26;;;;;;;;;;;22.70;49.70;;;;;;5004752;28;19926;-73
2022/04/18 12:50:54;;;;;;;;;;;22.80;50.00;;;;;;5008896;28;19929;-73
2022/04/18 12:53:22;;;;;;;;;;;22.90;50.00;;;;;;5004006;28;20024;-73
2022/04/18 12:56:04;;;;;;;;;;;23.00;50.00;;;;;;5004505;28;19921;-73
2022/04/18 12:58:36;;;;;;;;;;;23.10;49.90;;;;;;5000814;28;19948;-73
2022/04/18 13:01:03;;;;;;;;;;;23.20;49.50;;;;;;5003613;28;19925;-73
2022/04/18 13:03:30;;;;;;;;;;;23.10;49.60;;;;;;4987588;28;19925;-73
2022/04/18 13:06:02;;;;;;;;;;;23.10;49.40;;;;;;5007259;28;20480;-73
2022/04/18 13:08:29;;;;;;;;;;;23.00;49.40;;;;;;5000359;28;20561;-73
2022/04/18 13:10:56;;;;;;;;;;;22.80;48.80;;;;;;5010026;28;19925;-73
2022/04/18 13:13:23;;;;;;;;;;;22.80;49.10;;;;;;5010486;28;20008;-73
2022/04/18 13:15:50;;;;;;;;;;;22.70;49.00;;;;;;5006393;28;20287;-73
2022/04/18 13:18:21;;;;;;;;;;;22.70;49.30;;;;;;5012345;28;20365;-73
2022/04/18 13:20:48;;;;;;;;;;;22.70;49.70;;;;;;5010702;28;20612;-74
2022/04/18 13:23:17;;;;;;;;;;;22.80;49.50;;;;;;5003573;28;19921;-74
2022/04/18 13:25:45;;;;;;;;;;;22.80;49.60;;;;;;5011202;28;19925;-73
2022/04/18 13:28:15;;;;;;;;;;;22.90;49.50;;;;;;5018962;28;20055;-73
2022/04/18 13:30:42;;;;;;;;;;;23.10;49.70;;;;;;5028156;28;19956;-72
2022/04/18 13:33:09;;;;;;;;;;;23.10;48.70;;;;;;5009226;28;20013;-73
2022/04/18 13:38:22;;;;;;;;;;;22.90;49.30;;;;;;5005224;28;20247;-74
2022/04/18 13:40:49;;;;;;;;;;;22.80;49.70;;;;;;5003413;28;20023;-74
2022/04/18 13:43:15;;;;;;;;;;;22.90;50.00;;;;;;5009076;28;20007;-73
2022/04/18 13:45:42;;;;;;;;;;;22.90;49.40;;;;;;5018684;28;20016;-74
2022/04/18 13:48:09;;;;;;;;;;;23.00;49.80;;;;;;5006475;28;20008;-73
2022/04/18 13:50:36;;;;;;;;;;;23.00;49.90;;;;;;5008698;28;20353;-74
2022/04/18 13:53:03;;;;;;;;;;;23.00;49.70;;;;;;5010489;28;19926;-74
2022/04/18 13:55:33;;;;;;;;;;;23.10;49.90;;;;;;5006182;28;19936;-74
2022/04/18 13:58:00;;;;;;;;;;;23.30;50.10;;;;;;5009130;28;20149;-74
2022/04/18 14:00:27;;;;;;;;;;;23.50;49.90;;;;;;5009399;28;19949;-74
2022/04/18 14:02:53;;;;;;;;;;;23.50;49.90;;;;;;5005388;28;20371;-74
2022/04/18 14:05:22;;;;;;;;;;;23.60;49.90;;;;;;5006476;28;19929;-74
2022/04/18 14:07:49;;;;;;;;;;;23.70;49.70;;;;;;4998016;28;19956;-74
2022/04/18 14:10:15;;;;;;;;;;;23.60;49.60;;;;;;4992859;28;19925;-74
2022/04/18 14:12:43;;;;;;;;;;;23.60;49.50;;;;;;5002674;28;20487;-74
2022/04/18 14:20:39;;;;;;;;;;;23.50;49.30;;;;;;5024470;28;19924;-73
2022/04/18 14:23:06;;;;;;;;;;;23.30;49.10;;;;;;5021196;28;19922;-74
2022/04/18 14:25:32;;;;;;;;;;;23.20;48.80;;;;;;5014301;28;19925;-74
2022/04/18 14:28:01;;;;;;;;;;;23.30;49.40;;;;;;5007111;28;19948;-74
2022/04/18 14:30:29;;;;;;;;;;;23.30;48.60;;;;;;5000077;28;20000;-74
2022/04/18 14:32:56;;;;;;;;;;;23.10;48.50;;;;;;4993837;28;19975;-74
2022/04/18 14:35:24;;;;;;;;;;;22.90;48.90;;;;;;4996053;28;19929;-73
2022/04/18 14:37:51;;;;;;;;;;;23.00;49.20;;;;;;5003632;28;19956;-74
2022/04/18 14:40:18;;;;;;;;;;;23.00;49.50;;;;;;5004371;28;19945;-75
2022/04/18 14:42:45;;;;;;;;;;;23.10;49.70;;;;;;5007233;28;19929;-75
2022/04/18 14:45:13;;;;;;;;;;;23.20;49.80;;;;;;5002707;28;20387;-75
2022/04/18 14:47:40;;;;;;;;;;;23.20;48.70;;;;;;5006114;28;20375;-74
2022/04/18 14:50:07;;;;;;;;;;;23.00;48.80;;;;;;5000035;28;19922;-74
2022/04/18 14:52:34;;;;;;;;;;;22.80;49.40;;;;;;5005694;28;19933;-74
2022/04/18 14:55:03;;;;;;;;;;;22.80;49.20;;;;;;5001101;28;19921;-74
2022/04/18 14:57:30;;;;;;;;;;;22.80;49.90;;;;;;5003556;28;20545;-73
2022/04/18 14:59:57;;;;;;;;;;;22.70;49.10;;;;;;5002964;28;19929;-73
2022/04/18 15:02:25;;;;;;;;;;;22.50;48.90;;;;;;4998012;28;20355;-74
2022/04/18 15:04:52;;;;;;;;;;;22.50;49.50;;;;;;5007359;28;19955;-74
2022/04/18 15:07:19;;;;;;;;;;;22.60;49.90;;;;;;4998859;28;20510;-74
2022/04/18 15:09:46;;;;;;;;;;;22.70;49.90;;;;;;4989601;28;19925;-74
2022/04/18 15:12:13;;;;;;;;;;;22.80;50.10;;;;;;4998155;28;20543;-73